Ship Status Report: callsign BATFR34

sailwx.info

Track history (hours):
 
Tides and Currents Weather Stations Pressure Air Temp Water Temp Dewpoint Dewpoint Depression Visibility Wind Speed Wind Dir Waves Ship Positions

Callsign BATFR34 (name unknown)

Last reported at 2015-Jul-28 09:00 UTC. Time now 2015-Jul-30 23:05 UTC.
Position N 47°48' W 004°24'.

Wind from 260 at 8 knots

Barometer 1014.0 mb
Air temperature 7.5 ° C
Water temperature 17.7 ° C

Date/timePositionNaut miles runAvg speedWind from/ knotsBaromVisibWave heightAir tempDewpointWater temp
2015-Jul-28 09:00N 47°48' W 004°24'1413.5 260 / 81014.0 7.5 17.7
2015-Jul-28 08:00N 47°42' W 004°42'8 8.1 250 / 71014.3 5.2 17.2
2015-Jul-28 07:00N 47°42' W 004°54'8 8.1 290 / 101014.8 4.7 17.2
2015-Jul-28 06:00N 47°42' W 005°06'1010.1 270 / 81013.9 6.0 16.7
2015-Jul-28 05:00N 47°36' W 005°18'8 8.1 290 / 131014.2 8.2 19.4
2015-Jul-28 04:00N 47°36' W 005°30'8 8.1 280 / 131014.2 5.2 19.4
2015-Jul-28 03:00N 47°36' W 005°42'1010.1 280 / 141014.5 5.9 19.4
2015-Jul-28 02:00N 47°30' W 005°54'4 4.1 270 / 131014.8 6.5 19.2
2015-Jul-28 01:00N 47°30' W 006°00'4 4.1 270 / 111015.3 19.4
2015-Jul-28 00:00N 47°30' W 006°06'0 0.0 280 / 111015.5 3.4 19.2
2015-Jul-27 23:00N 47°30' W 006°06'4 4.1 260 / 131015.6 9.4 6.019.2
2015-Jul-27 22:00N 47°30' W 006°12'6 6.0 280 / 161015.9 10.5 1.219.2
2015-Jul-27 21:00N 47°36' W 006°12'4 4.0 290 / 161015.7 3.9 19.0
2015-Jul-27 20:00N 47°36' W 006°18'0 0.0 290 / 151015.4 4.7 19.2
2015-Jul-27 19:00N 47°36' W 006°18'6 6.0 290 / 181015.6 6.5 19.2
2015-Jul-27 18:00N 47°42' W 006°18'4 2.0 290 / 181015.3 19.2
2015-Jul-27 16:00N 47°42' W 006°24'0 0.0 290 / 201014.9 19.2 19.0
2015-Jul-27 15:00N 47°42' W 006°24'4 4.0 280 / 171014.2 0.5 18.9
2015-Jul-27 14:00N 47°42' W 006°30'6 3.0 280 / 161013.6 2.9 18.9
2015-Jul-27 12:00N 47°36' W 006°30'4 4.0 290 / 161013.0 5.5 18.9
2015-Jul-27 11:00N 47°36' W 006°36'0 0.0 270 / 181012.9 7.5 18.7
2015-Jul-27 10:00N 47°36' W 006°36'4 4.0 270 / 141012.2 5.5 18.7
2015-Jul-27 09:00N 47°36' W 006°42'6 6.0 270 / 191011.4 2.5 18.5
2015-Jul-27 08:00N 47°42' W 006°42'0 0.0 280 / 151010.7 3.9 18.5
2015-Jul-27 07:00N 47°42' W 006°42'6 6.0 280 / 191010.0 10.2 18.4
2015-Jul-27 06:00N 47°48' W 006°42'4 4.0 290 / 191010.2 7.7 18.2
2015-Jul-27 05:00N 47°48' W 006°48'0 0.0 290 / 211009.7 5.0 18.4
2015-Jul-27 04:00N 47°48' W 006°48'6 6.0 280 / 221009.0 2.2 18.2
2015-Jul-27 03:00N 47°54' W 006°48'0 0.0 270 / 191008.5 4.0 18.2
2015-Jul-27 02:00N 47°54' W 006°48'4 4.0 280 / 211008.4 2.9 18.2
2015-Jul-27 01:00N 47°54' W 006°54'7 7.2 270 / 231008.1 4.2 18.4
2015-Jul-27 00:00N 48°00' W 007°00'0 0.0 260 / 181007.8 -1.6 18.5
2015-Jul-26 23:00N 48°00' W 007°00'0 0.0 260 / 201007.7 -1.7-10.018.7
2015-Jul-26 22:00N 48°00' W 007°00'4 4.0 250 / 161008.1 18.7
2015-Jul-26 21:00N 48°00' W 007°06'7 7.2 260 / 151008.2 18.4
2015-Jul-26 20:00N 47°54' W 007°12'0 0.0 250 / 161007.7 -1.1 18.4
2015-Jul-26 19:00N 47°54' W 007°12'4 4.0 250 / 181007.5 -1.8-8.118.7
2015-Jul-26 18:00N 47°54' W 007°18'4 4.0 240 / 131007.4 -2.5-18.118.7
2015-Jul-26 17:00N 47°54' W 007°24'6 3.0 250 / 151007.2 -5.0 18.4
2015-Jul-26 15:00N 47°48' W 007°24'7 7.2 280 / 221006.6 2.2 -2.7 18.4
2015-Jul-26 14:00N 47°54' W 007°30'0 0.0 280 / 211006.1 3.2 18.2
2015-Jul-26 13:00N 47°54' W 007°30'7 7.2 270 / 191005.3 -4.0 18.4
2015-Jul-26 12:00N 48°00' W 007°36'0 0.0 250 / 241005.3 2.2 5.0 18.2
2015-Jul-26 11:00N 48°00' W 007°36'4 4.0 240 / 201005.4 3.9 18.2
2015-Jul-26 10:00N 48°00' W 007°42'4 4.0 250 / 201005.4 -5.0 18.2
2015-Jul-26 09:00N 48°00' W 007°48'6 3.0 280 / 151005.7 2.2 17.9
2015-Jul-26 07:00N 47°54' W 007°48'7 7.2 280 / 221005.5 1.4 18.2
2015-Jul-26 06:00N 47°48' W 007°54'6 6.0 250 / 161005.7 -6.0 18.2
2015-Jul-26 05:00N 47°54' W 007°54'4 4.0 220 / 191005.2 18.0
2015-Jul-26 04:00N 47°54' W 007°48'7 0.3 190 / 151006.5 9.0 18.2
2015-Jul-25 03:00N 47°48' W 007°54'6 6.0 330 / 141020.1 11.9 17.9
2015-Jul-25 02:00N 47°54' W 007°54'4 4.0 340 / 121019.6 10.7 17.7
2015-Jul-25 01:00N 47°54' W 007°48'0 0.0 340 / 141019.3 7.2 17.9
2015-Jul-24 22:00N 47°54' W 007°48'4 2.0 340 / 161018.4 4.9 18.0
2015-Jul-24 20:00N 47°54' W 007°54'6 3.0 340 / 191016.5 8.5 17.9
2015-Jul-24 18:00N 47°48' W 007°54'6 6.0 330 / 191015.7 9.9 17.7
2015-Jul-24 17:00N 47°54' W 007°54'4 4.0 320 / 181014.0 49.4 17.9
2015-Jul-24 16:00N 47°54' W 007°48'4 0.2 320 / 171013.4 14.9 17.7
2015-Jul-23 21:00N 47°54' W 007°54'4 4.0 150 / 191009.7 -20.7 18.2
2015-Jul-23 20:00N 47°54' W 007°48'0 0.0 150 / 201010.4 18.4
2015-Jul-23 19:00N 47°54' W 007°48'6 6.0 130 / 181011.6 -24.4 18.4
2015-Jul-23 18:00N 48°00' W 007°48'4 4.0 130 / 151012.9 0.5 -24.0 18.4
2015-Jul-23 17:00N 48°00' W 007°54'0 0.0 100 / 131013.5 -23.9 18.4
2015-Jul-23 16:00N 48°00' W 007°54'4 4.0 110 / 91014.4 -24.8 18.7
2015-Jul-23 15:00N 48°00' W 008°00'0 0.0 120 / 151015.4 18.2
2015-Jul-23 14:00N 48°00' W 008°00'7 7.2 150 / 141016.0 18.4
2015-Jul-23 13:00N 48°06' W 008°06'0 0.0 150 / 141016.4 -6.8-7.218.2
2015-Jul-23 12:00N 48°06' W 008°06'0 0.0 150 / 141017.2 49.9 18.4
2015-Jul-23 11:00N 48°06' W 008°06'0 0.0 130 / 121017.9 18.5
2015-Jul-23 10:00N 48°06' W 008°06'6 6.0 130 / 101018.5 18.4
2015-Jul-23 09:00N 48°00' W 008°06'4 4.0 150 / 91018.8 18.5
2015-Jul-23 08:00N 48°00' W 008°00'4 4.0 180 / 111019.3 -5.2 18.5
2015-Jul-23 07:00N 48°00' W 008°06'0 0.0 130 / 91019.3 18.5
2015-Jul-23 06:00N 48°00' W 008°06'6 6.0 170 / 71019.5 18.4
2015-Jul-23 05:00N 48°06' W 008°06'4 4.0 170 / 61019.7 31.4 18.7
2015-Jul-23 04:00N 48°06' W 008°12'4 4.0 160 / 71020.0 19.0
2015-Jul-23 03:00N 48°06' W 008°06'0 0.0 180 / 61020.4 18.5
2015-Jul-23 02:00N 48°06' W 008°06'6 6.0 190 / 41021.3 38.2 18.4
2015-Jul-23 01:00N 48°00' W 008°06'0 0.0 210 / 21021.5 18.5
2015-Jul-23 00:00N 48°00' W 008°06'0 0.0 270 / 31021.9 18.7
2015-Jul-22 23:00N 48°00' W 008°06'6 6.0 280 / 51021.9 18.5
2015-Jul-22 22:00N 48°06' W 008°06'0 0.0 270 / 61022.0 36.9 18.5
2015-Jul-22 21:00N 48°06' W 008°06'6 6.0 290 / 51021.8 18.7
2015-Jul-22 20:00N 48°00' W 008°06'0 0.0 290 / 71021.4 18.7
2015-Jul-22 19:00N 48°00' W 008°06'0 0.0 280 / 81021.6 23.4 18.9
2015-Jul-22 18:00N 48°00' W 008°06'0 0.0 270 / 61021.5 29.4 18.9
2015-Jul-22 17:00N 48°00' W 008°06'6 6.0 1021.6 18.5
2015-Jul-22 16:00N 48°06' W 008°06'4 4.0 280 / 71021.6 18.7
2015-Jul-22 15:00N 48°06' W 008°12'0 0.0 290 / 91021.7 2.9 19.0
2015-Jul-22 14:00N 48°06' W 008°12'4 4.0 270 / 81021.4 18.9
2015-Jul-22 13:00N 48°06' W 008°06'0 0.0 270 / 101021.1 -21.2 18.4
2015-Jul-22 12:00N 48°06' W 008°06'7 3.6 290 / 111020.7 2.2 -8.3 18.4
2015-Jul-22 10:00N 48°00' W 008°00'4 4.0 290 / 131019.7 -3.7 18.4
2015-Jul-22 09:00N 48°00' W 008°06'6 6.0 290 / 131019.0 -2.2 18.2
2015-Jul-22 08:00N 48°06' W 008°06'0 0.0 290 / 131018.5 -6.3 18.2
2015-Jul-22 07:00N 48°06' W 008°06'7 7.2 280 / 101018.0 18.0
2015-Jul-22 06:00N 48°00' W 008°00'4 2.0 280 / 101017.4 -20.9 18.2
2015-Jul-22 04:00N 48°00' W 008°06'0 0.0 230 / 121016.9 18.0
2015-Jul-22 02:00N 48°00' W 008°06'4 4.0 270 / 121017.2 20.4 18.2
2015-Jul-22 01:00N 48°00' W 008°00'4 4.0 250 / 121017.4 -22.0 18.0
2015-Jul-22 00:00N 48°00' W 008°06'6 6.0 280 / 101017.1 18.2
2015-Jul-21 23:00N 48°06' W 008°06'4 4.0 260 / 101016.8 18.2
2015-Jul-21 22:00N 48°06' W 008°12'4 4.0 260 / 81016.9 18.4
2015-Jul-21 21:00N 48°06' W 008°06'0 0.0 270 / 121016.6 -9.8 18.4
2015-Jul-21 20:00N 48°06' W 008°06'4 4.0 250 / 101016.1 18.2
2015-Jul-21 19:00N 48°06' W 008°00'6 6.0 210 / 91016.0 -2.1 18.4
2015-Jul-21 18:00N 48°00' W 008°00'4 4.0 220 / 121016.0 -3.2 18.2
2015-Jul-21 17:00N 48°00' W 007°54'0 0.0 240 / 91016.1 -0.8 18.4
2015-Jul-21 16:00N 48°00' W 007°54'4 4.0 240 / 91016.1 4.9 18.2
2015-Jul-21 15:00N 48°00' W 007°48'4 4.0 270 / 81016.1 4.7 18.5
2015-Jul-21 14:00N 48°00' W 007°42'0 0.0 210 / 71016.2 6.4-5.818.4
2015-Jul-21 13:00N 48°00' W 007°42'4 4.0 200 / 111016.0 8.7-0.618.2
2015-Jul-21 12:00N 48°00' W 007°36'6 6.0 200 / 91015.9 2.2 18.4
2015-Jul-21 11:00N 47°54' W 007°36'0 0.0 260 / 71015.9 -3.1 18.4
2015-Jul-21 10:00N 47°54' W 007°36'7 7.2 230 / 101015.4 18.4 18.2
2015-Jul-21 09:00N 48°00' W 007°42'4 4.0 230 / 101015.0 2.2 14.2 18.2
2015-Jul-21 08:00N 48°00' W 007°36'0 0.0 220 / 101014.6 6.7 18.0
2015-Jul-21 07:00N 48°00' W 007°36'7 7.2 230 / 91014.5 14.9 18.2
2015-Jul-21 06:00N 47°54' W 007°30'0 0.0 240 / 91014.3 10.9 18.4
2015-Jul-21 05:00N 47°54' W 007°30'7 7.2 240 / 111014.2 5.4 18.2
2015-Jul-21 04:00N 47°48' W 007°24'31 1.7 240 / 101014.1 2.4 18.2
2015-Jul-20 10:00N 47°36' W 006°42'6 6.0 190 / 171012.5 18.2
2015-Jul-20 09:00N 47°42' W 006°42'   190 / 141012.3 18.2
Track history (hours):
 
Tides and Currents Weather Stations Pressure Air Temp Water Temp Dewpoint Dewpoint Depression Visibility Wind Speed Wind Dir Waves Ship Positions

Callsign BATFR34 (name unknown)

Last reported at 2015-Jul-28 09:00 UTC. Time now 2015-Jul-30 23:05 UTC.
Position N 47°48' W 004°24'.

Wind from 260 at 8 knots

Barometer 1014.0 mb
Air temperature 7.5 ° C
Water temperature 17.7 ° C

Date/timePositionNaut miles runAvg speedWind from/ knotsBaromVisibWave heightAir tempDewpointWater temp
2015-Jul-28 09:00N 47°48' W 004°24'1413.5 260 / 81014.0 7.5 17.7
2015-Jul-28 08:00N 47°42' W 004°42'8 8.1 250 / 71014.3 5.2 17.2
2015-Jul-28 07:00N 47°42' W 004°54'8 8.1 290 / 101014.8 4.7 17.2
2015-Jul-28 06:00N 47°42' W 005°06'1010.1 270 / 81013.9 6.0 16.7
2015-Jul-28 05:00N 47°36' W 005°18'8 8.1 290 / 131014.2 8.2 19.4
2015-Jul-28 04:00N 47°36' W 005°30'8 8.1 280 / 131014.2 5.2 19.4
2015-Jul-28 03:00N 47°36' W 005°42'1010.1 280 / 141014.5 5.9 19.4
2015-Jul-28 02:00N 47°30' W 005°54'4 4.1 270 / 131014.8 6.5 19.2
2015-Jul-28 01:00N 47°30' W 006°00'4 4.1 270 / 111015.3 19.4
2015-Jul-28 00:00N 47°30' W 006°06'0 0.0 280 / 111015.5 3.4 19.2
2015-Jul-27 23:00N 47°30' W 006°06'4 4.1 260 / 131015.6 9.4 6.019.2
2015-Jul-27 22:00N 47°30' W 006°12'6 6.0 280 / 161015.9 10.5 1.219.2
2015-Jul-27 21:00N 47°36' W 006°12'4 4.0 290 / 161015.7 3.9 19.0
2015-Jul-27 20:00N 47°36' W 006°18'0 0.0 290 / 151015.4 4.7 19.2
2015-Jul-27 19:00N 47°36' W 006°18'6 6.0 290 / 181015.6 6.5 19.2
2015-Jul-27 18:00N 47°42' W 006°18'4 2.0 290 / 181015.3 19.2
2015-Jul-27 16:00N 47°42' W 006°24'0 0.0 290 / 201014.9 19.2 19.0
2015-Jul-27 15:00N 47°42' W 006°24'4 4.0 280 / 171014.2 0.5 18.9
2015-Jul-27 14:00N 47°42' W 006°30'6 3.0 280 / 161013.6 2.9 18.9
2015-Jul-27 12:00N 47°36' W 006°30'4 4.0 290 / 161013.0 5.5 18.9
2015-Jul-27 11:00N 47°36' W 006°36'0 0.0 270 / 181012.9 7.5 18.7
2015-Jul-27 10:00N 47°36' W 006°36'4 4.0 270 / 141012.2 5.5 18.7
2015-Jul-27 09:00N 47°36' W 006°42'6 6.0 270 / 191011.4 2.5 18.5
2015-Jul-27 08:00N 47°42' W 006°42'0 0.0 280 / 151010.7 3.9 18.5
2015-Jul-27 07:00N 47°42' W 006°42'6 6.0 280 / 191010.0 10.2 18.4
2015-Jul-27 06:00N 47°48' W 006°42'4 4.0 290 / 191010.2 7.7 18.2
2015-Jul-27 05:00N 47°48' W 006°48'0 0.0 290 / 211009.7 5.0 18.4
2015-Jul-27 04:00N 47°48' W 006°48'6 6.0 280 / 221009.0 2.2 18.2
2015-Jul-27 03:00N 47°54' W 006°48'0 0.0 270 / 191008.5 4.0 18.2
2015-Jul-27 02:00N 47°54' W 006°48'4 4.0 280 / 211008.4 2.9 18.2
2015-Jul-27 01:00N 47°54' W 006°54'7 7.2 270 / 231008.1 4.2 18.4
2015-Jul-27 00:00N 48°00' W 007°00'0 0.0 260 / 181007.8 -1.6 18.5
2015-Jul-26 23:00N 48°00' W 007°00'0 0.0 260 / 201007.7 -1.7-10.018.7
2015-Jul-26 22:00N 48°00' W 007°00'4 4.0 250 / 161008.1 18.7
2015-Jul-26 21:00N 48°00' W 007°06'7 7.2 260 / 151008.2 18.4
2015-Jul-26 20:00N 47°54' W 007°12'0 0.0 250 / 161007.7 -1.1 18.4
2015-Jul-26 19:00N 47°54' W 007°12'4 4.0 250 / 181007.5 -1.8-8.118.7
2015-Jul-26 18:00N 47°54' W 007°18'4 4.0 240 / 131007.4 -2.5-18.118.7
2015-Jul-26 17:00N 47°54' W 007°24'6 3.0 250 / 151007.2 -5.0 18.4
2015-Jul-26 15:00N 47°48' W 007°24'7 7.2 280 / 221006.6 2.2 -2.7 18.4
2015-Jul-26 14:00N 47°54' W 007°30'0 0.0 280 / 211006.1 3.2 18.2
2015-Jul-26 13:00N 47°54' W 007°30'7 7.2 270 / 191005.3 -4.0 18.4
2015-Jul-26 12:00N 48°00' W 007°36'0 0.0 250 / 241005.3 2.2 5.0 18.2
2015-Jul-26 11:00N 48°00' W 007°36'4 4.0 240 / 201005.4 3.9 18.2
2015-Jul-26 10:00N 48°00' W 007°42'4 4.0 250 / 201005.4 -5.0 18.2
2015-Jul-26 09:00N 48°00' W 007°48'6 3.0 280 / 151005.7 2.2 17.9
2015-Jul-26 07:00N 47°54' W 007°48'7 7.2 280 / 221005.5 1.4 18.2
2015-Jul-26 06:00N 47°48' W 007°54'6 6.0 250 / 161005.7 -6.0 18.2
2015-Jul-26 05:00N 47°54' W 007°54'4 4.0 220 / 191005.2 18.0
2015-Jul-26 04:00N 47°54' W 007°48'7 0.3 190 / 151006.5 9.0 18.2
2015-Jul-25 03:00N 47°48' W 007°54'6 6.0 330 / 141020.1 11.9 17.9
2015-Jul-25 02:00N 47°54' W 007°54'4 4.0 340 / 121019.6 10.7 17.7
2015-Jul-25 01:00N 47°54' W 007°48'0 0.0 340 / 141019.3 7.2 17.9
2015-Jul-24 22:00N 47°54' W 007°48'4 2.0 340 / 161018.4 4.9 18.0
2015-Jul-24 20:00N 47°54' W 007°54'6 3.0 340 / 191016.5 8.5 17.9
2015-Jul-24 18:00N 47°48' W 007°54'6 6.0 330 / 191015.7 9.9 17.7
2015-Jul-24 17:00N 47°54' W 007°54'4 4.0 320 / 181014.0 49.4 17.9
2015-Jul-24 16:00N 47°54' W 007°48'4 0.2 320 / 171013.4 14.9 17.7
2015-Jul-23 21:00N 47°54' W 007°54'4 4.0 150 / 191009.7 -20.7 18.2
2015-Jul-23 20:00N 47°54' W 007°48'0 0.0 150 / 201010.4 18.4
2015-Jul-23 19:00N 47°54' W 007°48'6 6.0 130 / 181011.6 -24.4 18.4
2015-Jul-23 18:00N 48°00' W 007°48'4 4.0 130 / 151012.9 0.5 -24.0 18.4
2015-Jul-23 17:00N 48°00' W 007°54'0 0.0 100 / 131013.5 -23.9 18.4
2015-Jul-23 16:00N 48°00' W 007°54'4 4.0 110 / 91014.4 -24.8 18.7
2015-Jul-23 15:00N 48°00' W 008°00'0 0.0 120 / 151015.4 18.2
2015-Jul-23 14:00N 48°00' W 008°00'7 7.2 150 / 141016.0 18.4
2015-Jul-23 13:00N 48°06' W 008°06'0 0.0 150 / 141016.4 -6.8-7.218.2
2015-Jul-23 12:00N 48°06' W 008°06'0 0.0 150 / 141017.2 49.9 18.4
2015-Jul-23 11:00N 48°06' W 008°06'0 0.0 130 / 121017.9 18.5
2015-Jul-23 10:00N 48°06' W 008°06'6 6.0 130 / 101018.5 18.4
2015-Jul-23 09:00N 48°00' W 008°06'4 4.0 150 / 91018.8 18.5
2015-Jul-23 08:00N 48°00' W 008°00'4 4.0 180 / 111019.3 -5.2 18.5
2015-Jul-23 07:00N 48°00' W 008°06'0 0.0 130 / 91019.3 18.5
2015-Jul-23 06:00N 48°00' W 008°06'6 6.0 170 / 71019.5 18.4
2015-Jul-23 05:00N 48°06' W 008°06'4 4.0 170 / 61019.7 31.4 18.7
2015-Jul-23 04:00N 48°06' W 008°12'4 4.0 160 / 71020.0 19.0
2015-Jul-23 03:00N 48°06' W 008°06'0 0.0 180 / 61020.4 18.5
2015-Jul-23 02:00N 48°06' W 008°06'6 6.0 190 / 41021.3 38.2 18.4
2015-Jul-23 01:00N 48°00' W 008°06'0 0.0 210 / 21021.5 18.5
2015-Jul-23 00:00N 48°00' W 008°06'0 0.0 270 / 31021.9 18.7
2015-Jul-22 23:00N 48°00' W 008°06'6 6.0 280 / 51021.9 18.5
2015-Jul-22 22:00N 48°06' W 008°06'0 0.0 270 / 61022.0 36.9 18.5
2015-Jul-22 21:00N 48°06' W 008°06'6 6.0 290 / 51021.8 18.7
2015-Jul-22 20:00N 48°00' W 008°06'0 0.0 290 / 71021.4 18.7
2015-Jul-22 19:00N 48°00' W 008°06'0 0.0 280 / 81021.6 23.4 18.9
2015-Jul-22 18:00N 48°00' W 008°06'0 0.0 270 / 61021.5 29.4 18.9
2015-Jul-22 17:00N 48°00' W 008°06'6 6.0 1021.6 18.5
2015-Jul-22 16:00N 48°06' W 008°06'4 4.0 280 / 71021.6 18.7
2015-Jul-22 15:00N 48°06' W 008°12'0 0.0 290 / 91021.7 2.9 19.0
2015-Jul-22 14:00N 48°06' W 008°12'4 4.0 270 / 81021.4 18.9
2015-Jul-22 13:00N 48°06' W 008°06'0 0.0 270 / 101021.1 -21.2 18.4
2015-Jul-22 12:00N 48°06' W 008°06'7 3.6 290 / 111020.7 2.2 -8.3 18.4
2015-Jul-22 10:00N 48°00' W 008°00'4 4.0 290 / 131019.7 -3.7 18.4
2015-Jul-22 09:00N 48°00' W 008°06'6 6.0 290 / 131019.0 -2.2 18.2
2015-Jul-22 08:00N 48°06' W 008°06'0 0.0 290 / 131018.5 -6.3 18.2
2015-Jul-22 07:00N 48°06' W 008°06'7 7.2 280 / 101018.0 18.0
2015-Jul-22 06:00N 48°00' W 008°00'4 2.0 280 / 101017.4 -20.9 18.2
2015-Jul-22 04:00N 48°00' W 008°06'0 0.0 230 / 121016.9 18.0
2015-Jul-22 02:00N 48°00' W 008°06'4 4.0 270 / 121017.2 20.4 18.2
2015-Jul-22 01:00N 48°00' W 008°00'4 4.0 250 / 121017.4 -22.0 18.0
2015-Jul-22 00:00N 48°00' W 008°06'6 6.0 280 / 101017.1 18.2
2015-Jul-21 23:00N 48°06' W 008°06'4 4.0 260 / 101016.8 18.2
2015-Jul-21 22:00N 48°06' W 008°12'4 4.0 260 / 81016.9 18.4
2015-Jul-21 21:00N 48°06' W 008°06'0 0.0 270 / 121016.6 -9.8 18.4
2015-Jul-21 20:00N 48°06' W 008°06'4 4.0 250 / 101016.1 18.2
2015-Jul-21 19:00N 48°06' W 008°00'6 6.0 210 / 91016.0 -2.1 18.4
2015-Jul-21 18:00N 48°00' W 008°00'4 4.0 220 / 121016.0 -3.2 18.2
2015-Jul-21 17:00N 48°00' W 007°54'0 0.0 240 / 91016.1 -0.8 18.4
2015-Jul-21 16:00N 48°00' W 007°54'4 4.0 240 / 91016.1 4.9 18.2
2015-Jul-21 15:00N 48°00' W 007°48'4 4.0 270 / 81016.1 4.7 18.5
2015-Jul-21 14:00N 48°00' W 007°42'0 0.0 210 / 71016.2 6.4-5.818.4
2015-Jul-21 13:00N 48°00' W 007°42'4 4.0 200 / 111016.0 8.7-0.618.2
2015-Jul-21 12:00N 48°00' W 007°36'6 6.0 200 / 91015.9 2.2 18.4
2015-Jul-21 11:00N 47°54' W 007°36'0 0.0 260 / 71015.9 -3.1 18.4
2015-Jul-21 10:00N 47°54' W 007°36'7 7.2 230 / 101015.4 18.4 18.2
2015-Jul-21 09:00N 48°00' W 007°42'4 4.0 230 / 101015.0 2.2 14.2 18.2
2015-Jul-21 08:00N 48°00' W 007°36'0 0.0 220 / 101014.6 6.7 18.0
2015-Jul-21 07:00N 48°00' W 007°36'7 7.2 230 / 91014.5 14.9 18.2
2015-Jul-21 06:00N 47°54' W 007°30'0 0.0 240 / 91014.3 10.9 18.4
2015-Jul-21 05:00N 47°54' W 007°30'7 7.2 240 / 111014.2 5.4 18.2
2015-Jul-21 04:00N 47°48' W 007°24'31 1.7 240 / 101014.1 2.4 18.2
2015-Jul-20 10:00N 47°36' W 006°42'6 6.0 190 / 171012.5 18.2
2015-Jul-20 09:00N 47°42' W 006°42'   190 / 141012.3 18.2

Dump ship's entire track history